Time;durP1;ratioP1;P1;durP2;ratioP2;P2;SDS_P1;SDS_P2;PMS_P1;PMS_P2;Temp;Humidity;BMP_temperature;BMP_pressure;BME280_temperature;BME280_humidity;BME280_pressure;Samples;Min_cycle;Max_cycle;Signal;HPM_P1;HPM_P2
2020/12/04 00:01:01;;;;;;;2.83;1.52;;;;;;;-0.05;100.00;101671.52;1795702;78;21150;-53
2020/12/04 00:03:29;;;;;;;0.47;0.47;;;;;;;-0.06;100.00;101671.17;1796298;79;21108;-53
2020/12/04 00:05:57;;;;;;;0.45;0.45;;;;;;;-0.06;100.00;101677.88;1796326;78;21130;-51
2020/12/04 00:08:24;;;;;;;1.57;1.50;;;;;;;-0.05;100.00;101674.20;1796627;78;20989;-51
2020/12/04 00:10:52;;;;;;;0.00;0.00;;;;;;;-0.05;100.00;101680.92;1796435;78;21114;-53
2020/12/04 00:13:19;;;;;;;4.08;1.67;;;;;;;-0.06;100.00;101680.57;1796407;78;21123;-53
2020/12/04 00:15:47;;;;;;;0.45;0.45;;;;;;;-0.05;100.00;101683.61;1806357;78;21146;-52
2020/12/04 00:18:14;;;;;;;0.15;0.15;;;;;;;-0.05;100.00;101680.92;1828944;78;21189;-51
2020/12/04 00:20:42;;;;;;;0.90;0.90;;;;;;;-0.04;100.00;101686.61;1835063;77;21149;-52
2020/12/04 00:23:10;;;;;;;1.25;0.42;;;;;;;-0.05;100.00;101688.98;1825190;78;21531;-52
2020/12/04 00:25:37;;;;;;;1.22;1.12;;;;;;;-0.04;100.00;101687.13;1817856;78;21107;-52
2020/12/04 00:28:05;;;;;;;0.68;0.60;;;;;;;-0.05;100.00;101682.27;1816503;79;21083;-51
2020/12/04 00:30:32;;;;;;;0.60;0.55;;;;;;;-0.06;100.00;101681.91;1821267;78;21189;-52
2020/12/04 00:33:00;;;;;;;0.20;0.20;;;;;;;-0.05;100.00;101686.30;1790955;80;21125;-53
2020/12/04 00:35:27;;;;;;;1.00;0.90;;;;;;;-0.05;100.00;101682.27;1812632;78;21193;-54
2020/12/04 00:37:54;;;;;;;0.65;0.35;;;;;;;-0.07;100.00;101681.60;1825325;78;21110;-53
2020/12/04 00:40:22;;;;;;;0.03;0.03;;;;;;;-0.05;100.00;101675.55;1823644;78;21150;-54
2020/12/04 00:42:49;;;;;;;0.10;0.10;;;;;;;-0.05;100.00;101674.69;1815988;79;21585;-54
2020/12/04 00:45:18;;;;;;;1.37;1.35;;;;;;;-0.06;100.00;101692.66;1838652;78;21138;-54
2020/12/04 00:47:46;;;;;;;0.60;0.60;;;;;;;-0.06;100.00;101699.38;1810060;78;21174;-51
2020/12/04 00:50:14;;;;;;;0.08;0.08;;;;;;;-0.04;100.00;101712.14;1816738;77;20933;-51
2020/12/04 00:52:41;;;;;;;0.78;0.25;;;;;;;-0.04;100.00;101699.22;1859361;77;21150;-51
2020/12/04 00:55:09;;;;;;;0.40;0.40;;;;;;;-0.05;100.00;101703.76;1859252;77;21126;-52
2020/12/04 00:57:37;;;;;;;0.05;0.05;;;;;;;-0.06;100.00;101698.04;1857626;77;21110;-51
2020/12/04 01:00:05;;;;;;;0.68;0.68;;;;;;;-0.05;100.00;101703.76;1821914;78;21141;-51
2020/12/04 01:02:32;;;;;;;1.25;0.95;;;;;;;-0.04;100.00;101694.67;1824969;78;21170;-52
2020/12/04 01:05:00;;;;;;;0.10;0.10;;;;;;;-0.05;100.00;101688.13;1817485;78;21599;-51
2020/12/04 01:07:28;;;;;;;0.60;0.53;;;;;;;-0.05;100.00;101693.02;1805568;79;21139;-53
2020/12/04 01:09:55;;;;;;;1.05;1.05;;;;;;;-0.05;100.00;101685.43;1804869;78;21487;-51
2020/12/04 01:12:23;;;;;;;0.10;0.10;;;;;;;-0.03;100.00;101684.23;1805519;79;21112;-52
2020/12/04 01:14:50;;;;;;;0.47;0.47;;;;;;;-0.05;100.00;101683.61;1806070;78;21468;-53
2020/12/04 01:17:17;;;;;;;0.90;0.90;;;;;;;-0.06;100.00;101687.29;1805439;79;21513;-53
2020/12/04 01:19:45;;;;;;;0.90;0.60;;;;;;;-0.06;100.00;101683.26;1805737;78;21130;-52
2020/12/04 01:22:13;;;;;;;0.72;0.33;;;;;;;-0.05;100.00;101687.64;1807694;78;21548;-53
2020/12/04 01:24:42;;;;;;;0.00;0.00;;;;;;;-0.05;100.00;101685.43;1805552;79;21222;-53
2020/12/04 01:27:09;;;;;;;0.05;0.05;;;;;;;-0.06;100.00;101681.91;1805700;79;21143;-51
2020/12/04 01:29:37;;;;;;;0.80;0.72;;;;;;;-0.06;100.00;101683.26;1806291;78;21676;-53
2020/12/04 01:32:04;;;;;;;0.45;0.45;;;;;;;-0.06;100.00;101679.23;1805699;79;21217;-51
2020/12/04 01:34:32;;;;;;;0.60;0.60;;;;;;;-0.05;100.00;101682.75;1792555;79;21667;-51
2020/12/04 01:36:59;;;;;;;0.45;0.37;;;;;;;-0.06;100.00;101675.71;1802586;79;21162;-53
2020/12/04 01:39:27;;;;;;;0.20;0.20;;;;;;;-0.07;100.00;101673.54;1826560;78;21130;-51
2020/12/04 01:41:54;;;;;;;0.42;0.42;;;;;;;-0.07;100.00;101669.51;1825237;78;21098;-51
2020/12/04 01:44:21;;;;;;;0.70;0.68;;;;;;;-0.06;100.00;101668.48;1825384;78;21575;-52
2020/12/04 01:46:50;;;;;;;0.75;0.55;;;;;;;-0.06;100.00;101675.20;1791017;80;21147;-51
2020/12/04 01:49:17;;;;;;;0.65;0.65;;;;;;;-0.07;100.00;101678.91;1849198;77;21264;-53
2020/12/04 01:51:47;;;;;;;0.20;0.20;;;;;;;-0.06;100.00;101674.37;1858818;77;21629;-53
2020/12/04 01:54:15;;;;;;;0.30;0.28;;;;;;;-0.06;100.00;101676.55;1858369;77;21146;-51
2020/12/04 01:56:43;;;;;;;3.15;1.72;;;;;;;-0.06;100.00;101674.37;1830986;77;21618;-53
2020/12/04 01:59:10;;;;;;;0.53;0.53;;;;;;;-0.08;100.00;101681.25;1825000;78;21167;-51
2020/12/04 02:01:42;;;;;;;0.62;0.37;;;;;;;-0.09;100.00;101679.59;1825129;78;21090;-53
2020/12/04 02:04:11;;;;;;;0.82;0.80;;;;;;;-0.07;100.00;101676.73;1825430;77;21118;-51
2020/12/04 02:06:52;;;;;;;0.35;0.35;;;;;;;-0.08;100.00;101680.42;1794658;79;21183;-51
2020/12/04 02:09:23;;;;;;;2.77;2.08;;;;;;;-0.09;100.00;101684.97;1794577;79;21127;-51
2020/12/04 02:11:50;;;;;;;0.70;0.35;;;;;;;-0.09;100.00;101675.56;1791389;78;21166;-53
2020/12/04 02:14:18;;;;;;;0.75;0.75;;;;;;;-0.10;100.00;101676.59;1796206;79;20972;-51
2020/12/04 02:16:46;;;;;;;0.30;0.30;;;;;;;-0.12;100.00;101670.55;1795753;78;21158;-53
2020/12/04 02:19:14;;;;;;;0.50;0.50;;;;;;;-0.12;100.00;101677.78;1825134;77;21110;-52
2020/12/04 02:21:42;;;;;;;3.45;1.90;;;;;;;-0.09;100.00;101680.11;1800355;78;21135;-53
2020/12/04 02:24:09;;;;;;;0.45;0.45;;;;;;;-0.09;100.00;101678.77;1818733;78;21167;-53
2020/12/04 02:26:37;;;;;;;0.62;0.62;;;;;;;-0.11;100.00;101669.53;1818913;78;21119;-52
2020/12/04 02:29:11;;;;;;;0.00;0.00;;;;;;;-0.14;100.00;101679.30;1799566;78;21146;-53
2020/12/04 02:31:38;;;;;;;0.20;0.20;;;;;;;-0.15;100.00;101676.27;1796958;79;21107;-51
2020/12/04 02:34:06;;;;;;;0.60;0.60;;;;;;;-0.14;100.00;101670.41;1796970;79;21150;-52
2020/12/04 02:36:34;;;;;;;0.57;0.45;;;;;;;-0.16;100.00;101667.89;1796838;79;21170;-51
2020/12/04 02:39:01;;;;;;;0.88;0.88;;;;;;;-0.15;100.00;101671.41;1848881;77;21561;-51
2020/12/04 02:41:29;;;;;;;0.42;0.10;;;;;;;-0.16;100.00;101667.89;1850856;77;21118;-51
2020/12/04 02:43:57;;;;;;;0.75;0.75;;;;;;;-0.16;100.00;101671.92;1850679;77;21546;-53
2020/12/04 02:46:24;;;;;;;2.72;0.55;;;;;;;-0.16;100.00;101669.75;1828391;78;21173;-52
2020/12/04 02:48:51;;;;;;;0.55;0.55;;;;;;;-0.16;100.00;101666.55;1829763;78;21166;-53
2020/12/04 02:51:18;;;;;;;1.67;1.57;;;;;;;-0.17;100.00;101666.23;1829886;78;21142;-53
2020/12/04 02:53:46;;;;;;;1.67;0.88;;;;;;;-0.16;100.00;101670.57;1829812;78;21125;-52
2020/12/04 02:56:18;;;;;;;0.40;0.40;;;;;;;-0.15;100.00;101666.03;1829815;78;21122;-51
2020/12/04 02:58:45;;;;;;;0.40;0.40;;;;;;;-0.16;100.00;101667.05;1829469;78;21118;-53
2020/12/04 03:01:13;;;;;;;0.60;0.60;;;;;;;-0.18;100.00;101667.22;1796711;79;21173;-53
2020/12/04 03:03:41;;;;;;;0.30;0.30;;;;;;;-0.19;100.00;101666.91;1797864;78;21138;-51
2020/12/04 03:06:08;;;;;;;0.37;0.37;;;;;;;-0.18;100.00;101663.70;1824798;78;21501;-51
2020/12/04 03:08:36;;;;;;;0.30;0.30;;;;;;;-0.18;100.00;101671.77;1826895;77;21500;-53
2020/12/04 03:11:04;;;;;;;0.00;0.00;;;;;;;-0.19;100.00;101680.86;1825156;78;21122;-51
2020/12/04 03:13:32;;;;;;;2.67;1.55;;;;;;;-0.19;100.00;101689.75;1825094;78;21136;-53
2020/12/04 03:15:59;;;;;;;1.45;1.35;;;;;;;-0.19;100.00;101679.00;1825129;78;21153;-51
2020/12/04 03:18:26;;;;;;;0.55;0.55;;;;;;;-0.17;100.00;101676.11;1841696;77;20996;-51
2020/12/04 03:20:54;;;;;;;1.00;1.00;;;;;;;-0.18;100.00;101677.97;1833174;78;21568;-52
2020/12/04 03:23:21;;;;;;;1.42;1.32;;;;;;;-0.19;100.00;101674.97;1838676;78;21277;-52
2020/12/04 03:25:49;;;;;;;0.90;0.78;;;;;;;-0.16;100.00;101677.80;1838448;78;20971;-52
2020/12/04 03:28:17;;;;;;;0.37;0.37;;;;;;;-0.16;100.00;101679.14;1814803;78;21131;-54
2020/12/04 03:30:44;;;;;;;0.78;0.78;;;;;;;-0.16;100.00;101673.77;1805517;79;21114;-53
2020/12/04 03:33:12;;;;;;;0.85;0.85;;;;;;;-0.17;100.00;101682.34;1818702;78;21155;-53
2020/12/04 03:35:40;;;;;;;1.17;0.50;;;;;;;-0.16;100.00;101681.32;1835157;78;21659;-51
2020/12/04 03:38:07;;;;;;;0.98;0.98;;;;;;;-0.15;100.00;101676.78;1834577;78;21118;-52
2020/12/04 03:40:35;;;;;;;5.22;1.47;;;;;;;-0.15;100.00;101674.09;1835246;78;21153;-51
2020/12/04 03:43:03;;;;;;;0.45;0.45;;;;;;;-0.17;100.00;101670.73;1830098;78;21469;-54
2020/12/04 03:45:30;;;;;;;0.30;0.30;;;;;;;-0.17;100.00;101678.31;1802449;79;21118;-51
2020/12/04 03:47:58;;;;;;;1.02;1.02;;;;;;;-0.15;100.00;101674.09;1825380;78;21683;-54
2020/12/04 03:50:25;;;;;;;0.10;0.10;;;;;;;-0.15;100.00;101673.58;1825194;78;21138;-52
2020/12/04 03:52:53;;;;;;;0.93;0.85;;;;;;;-0.16;100.00;101675.95;1800581;78;21115;-52
2020/12/04 03:55:20;;;;;;;3.17;0.88;;;;;;;-0.16;100.00;101667.89;1829664;78;21153;-51
2020/12/04 03:57:48;;;;;;;0.00;0.00;;;;;;;-0.14;100.00;101673.92;1829815;78;21114;-54
2020/12/04 04:00:15;;;;;;;1.27;1.17;;;;;;;-0.13;100.00;101668.86;1829523;78;21572;-53
2020/12/04 04:02:43;;;;;;;1.07;1.02;;;;;;;-0.13;100.00;101676.92;1813264;78;21628;-54
2020/12/04 04:05:10;;;;;;;1.25;1.07;;;;;;;-0.14;100.00;101676.61;1825334;78;21150;-51
2020/12/04 04:07:38;;;;;;;0.98;0.98;;;;;;;-0.13;100.00;101680.95;1825424;78;21426;-53
2020/12/04 04:10:06;;;;;;;0.23;0.23;;;;;;;-0.13;100.00;101682.81;1795044;78;21599;-51
2020/12/04 04:12:33;;;;;;;0.55;0.55;;;;;;;-0.13;100.00;101686.33;1825384;78;21138;-51
2020/12/04 04:15:01;;;;;;;0.20;0.20;;;;;;;-0.14;100.00;101681.98;1805586;78;21162;-54
2020/12/04 04:17:28;;;;;;;1.70;1.60;;;;;;;-0.13;100.00;101681.47;1805778;79;21524;-53
2020/12/04 04:19:56;;;;;;;0.30;0.30;;;;;;;-0.14;100.00;101686.02;1793861;79;21671;-51
2020/12/04 04:22:24;;;;;;;0.13;0.13;;;;;;;-0.14;100.00;101681.98;1816341;79;21142;-53
2020/12/04 04:24:53;;;;;;;0.15;0.15;;;;;;;-0.15;100.00;101684.84;1816331;78;20977;-52
2020/12/04 04:27:20;;;;;;;1.02;0.85;;;;;;;-0.17;100.00;101685.03;1808226;79;21546;-52
2020/12/04 04:29:47;;;;;;;1.85;1.17;;;;;;;-0.17;100.00;101694.44;1820718;77;21158;-52
2020/12/04 04:32:15;;;;;;;0.20;0.20;;;;;;;-0.18;100.00;101699.47;1802651;79;21130;-53
2020/12/04 04:34:43;;;;;;;0.85;0.40;;;;;;;-0.18;100.00;101704.84;1802586;79;21122;-53
2020/12/04 04:37:11;;;;;;;0.50;0.50;;;;;;;-0.17;100.00;101702.50;1825383;78;21076;-54
2020/12/04 04:39:38;;;;;;;2.85;1.37;;;;;;;-0.17;100.00;101700.30;1802377;78;21147;-52
2020/12/04 04:42:06;;;;;;;0.45;0.45;;;;;;;-0.18;100.00;101702.15;1825423;77;22037;-51
2020/12/04 04:44:35;;;;;;;1.95;1.65;;;;;;;-0.19;100.00;101701.00;1845949;77;21425;-52
2020/12/04 04:47:12;;;;;;;2.08;0.95;;;;;;;-0.18;100.00;101699.47;1799187;78;20976;-53
2020/12/04 04:49:50;;;;;;;3.67;1.47;;;;;;;-0.17;100.00;101703.84;1833126;78;21209;-54
2020/12/04 04:52:18;;;;;;;0.30;0.30;;;;;;;-0.17;100.00;101705.19;1833150;78;21122;-52
2020/12/04 04:54:48;;;;;;;1.02;1.02;;;;;;;-0.16;100.00;101700.12;1833027;78;21106;-53
2020/12/04 04:57:22;;;;;;;2.00;1.85;;;;;;;-0.16;100.00;101702.81;1832767;78;21138;-54
2020/12/04 04:59:54;;;;;;;0.30;0.30;;;;;;;-0.15;100.00;101699.09;1832900;77;21906;-55
2020/12/04 05:02:22;;;;;;;2.27;0.60;;;;;;;-0.15;100.00;101696.41;1833538;78;21161;-52
2020/12/04 05:04:56;;;;;;;0.50;0.50;;;;;;;-0.14;100.00;101698.10;1835438;78;21158;-52
2020/12/04 05:07:31;;;;;;;1.15;1.12;;;;;;;-0.14;100.00;101691.39;1835561;78;21149;-53
2020/12/04 05:10:20;;;;;;;1.82;1.05;;;;;;;-0.16;100.00;101684.01;1835600;78;20944;-52
2020/12/04 05:13:00;;;;;;;0.42;0.42;;;;;;;-0.17;100.00;101701.16;1835620;78;21558;-54
2020/12/04 05:15:29;;;;;;;0.62;0.62;;;;;;;-0.18;100.00;101710.20;1835531;78;21235;-53
2020/12/04 05:18:10;;;;;;;2.17;2.08;;;;;;;-0.18;100.00;101715.58;1831703;78;21161;-54
2020/12/04 05:20:42;;;;;;;0.75;0.75;;;;;;;-0.18;100.00;101714.23;1802409;78;21134;-54
2020/12/04 05:23:09;;;;;;;1.02;0.78;;;;;;;-0.18;100.00;101716.09;1802534;79;21114;-54
2020/12/04 05:25:44;;;;;;;0.98;0.60;;;;;;;-0.17;100.00;101716.41;1802596;79;21134;-53
2020/12/04 05:28:15;;;;;;;0.82;0.68;;;;;;;-0.17;100.00;101726.67;1802651;79;21164;-55
2020/12/04 05:30:45;;;;;;;1.17;0.75;;;;;;;-0.15;100.00;101725.97;1825164;78;21177;-53
2020/12/04 05:33:13;;;;;;;0.40;0.40;;;;;;;-0.14;100.00;101719.59;1790952;80;21552;-55
2020/12/04 05:35:41;;;;;;;2.33;2.08;;;;;;;-0.15;100.00;101717.08;1839136;77;21095;-54
2020/12/04 05:38:15;;;;;;;2.52;1.75;;;;;;;-0.17;100.00;101718.62;1845154;77;21072;-53
2020/12/04 05:40:49;;;;;;;1.25;1.25;;;;;;;-0.16;100.00;101724.83;1838588;78;21169;-54
2020/12/04 05:43:30;;;;;;;0.10;0.10;;;;;;;-0.16;100.00;101732.37;1838448;78;21149;-53
2020/12/04 05:46:17;;;;;;;1.07;1.07;;;;;;;-0.18;100.00;101733.05;1806623;78;21106;-54
2020/12/04 05:49:08;;;;;;;2.55;1.20;;;;;;;-0.19;100.00;101736.77;1805688;79;21206;-54
2020/12/04 05:51:38;;;;;;;0.57;0.57;;;;;;;-0.19;100.00;101738.10;1823407;78;21123;-53
2020/12/04 05:54:07;;;;;;;1.05;1.05;;;;;;;-0.18;100.00;101739.77;1840382;77;21593;-53
2020/12/04 05:56:35;;;;;;;1.20;0.30;;;;;;;-0.19;100.00;101741.30;1843194;77;21138;-54
2020/12/04 05:59:08;;;;;;;7.72;1.02;;;;;;;-0.20;100.00;101739.09;1855313;77;21565;-52
2020/12/04 06:01:36;;;;;;;0.25;0.25;;;;;;;-0.18;100.00;101734.39;1853734;77;21422;-52
2020/12/04 06:04:04;;;;;;;0.72;0.72;;;;;;;-0.17;100.00;101745.48;1776624;79;21121;-54
2020/12/04 06:06:32;;;;;;;0.23;0.23;;;;;;;-0.19;100.00;101738.10;1807270;78;21169;-52
2020/12/04 06:09:05;;;;;;;1.80;1.30;;;;;;;-0.19;100.00;101752.88;1813166;78;21161;-54
2020/12/04 06:11:43;;;;;;;1.92;1.75;;;;;;;-0.18;100.00;101755.88;1811122;78;21453;-52
2020/12/04 06:14:18;;;;;;;0.95;0.95;;;;;;;-0.19;100.00;101756.91;1778334;78;21141;-53
2020/12/04 06:17:07;;;;;;;0.85;0.45;;;;;;;-0.20;100.00;101763.80;1820311;78;21430;-53
2020/12/04 06:19:39;;;;;;;1.27;1.17;;;;;;;-0.22;100.00;101759.95;1802284;78;21177;-52
2020/12/04 06:22:17;;;;;;;0.90;0.85;;;;;;;-0.17;100.00;101752.20;1887605;75;29504;-52
2020/12/04 06:25:00;;;;;;;0.25;0.25;;;;;;;-0.20;100.00;101753.05;1858030;77;21095;-52
2020/12/04 06:27:44;;;;;;;4.22;1.47;;;;;;;-0.20;100.00;101755.73;1829534;77;21580;-52
2020/12/04 06:30:15;;;;;;;0.13;0.13;;;;;;;-0.21;100.00;101750.88;1820795;78;21441;-50
2020/12/04 06:32:51;;;;;;;0.60;0.60;;;;;;;-0.18;100.00;101757.23;1820967;78;21434;-49
2020/12/04 06:35:43;;;;;;;2.02;1.40;;;;;;;-0.20;100.00;101756.56;1821024;78;21146;-50
2020/12/04 06:38:39;;;;;;;5.13;0.97;;;;;;;-0.21;100.00;101757.59;1821312;78;21123;-52
2020/12/04 06:41:23;;;;;;;1.42;0.57;;;;;;;-0.19;100.00;101754.73;1821060;78;21114;-51
2020/12/04 06:44:12;;;;;;;0.20;0.20;;;;;;;-0.18;100.00;101761.25;1836096;77;21103;-52
2020/12/04 06:46:44;;;;;;;1.70;1.30;;;;;;;-0.16;100.00;101763.27;1753851;81;21161;-49
2020/12/04 06:49:37;;;;;;;1.35;1.25;;;;;;;-0.14;100.00;101769.30;1754075;81;21434;-51
2020/12/04 06:52:20;;;;;;;2.55;2.15;;;;;;;-0.09;100.00;101768.27;1772001;80;21128;-51
2020/12/04 06:54:49;;;;;;;0.60;0.45;;;;;;;-0.08;100.00;101767.23;1768796;81;21450;-50
2020/12/04 06:57:22;;;;;;;4.78;1.55;;;;;;;-0.08;100.00;101767.23;1768750;81;21141;-52
2020/12/04 06:59:49;;;;;;;1.80;1.70;;;;;;;-0.09;100.00;101765.58;1769760;79;21587;-51
2020/12/04 07:02:21;;;;;;;1.25;1.25;;;;;;;-0.07;100.00;101771.63;1754673;80;21628;-50
2020/12/04 07:04:52;;;;;;;2.45;2.25;;;;;;;-0.07;100.00;101777.00;1783321;80;21151;-52
2020/12/04 07:07:21;;;;;;;0.28;0.28;;;;;;;-0.07;100.00;101771.63;1785061;80;21302;-49
2020/12/04 07:10:00;;;;;;;2.02;1.12;;;;;;;-0.05;100.00;101774.11;1784966;80;21142;-51
2020/12/04 07:12:29;;;;;;;6.72;2.70;;;;;;;-0.05;100.00;101773.63;1784861;80;21123;-54
2020/12/04 07:14:59;;;;;;;0.60;0.50;;;;;;;-0.04;100.00;101779.32;1784745;80;21130;-52
2020/12/04 07:17:28;;;;;;;3.87;1.02;;;;;;;-0.03;100.00;101768.89;1773681;80;21020;-52
2020/12/04 07:19:56;;;;;;;0.78;0.78;;;;;;;-0.02;100.00;101771.92;1813952;78;21134;-54
2020/12/04 07:22:24;;;;;;;4.92;2.92;;;;;;;0.01;100.00;101769.39;1758396;80;21176;-55
2020/12/04 07:24:53;;;;;;;1.35;1.12;;;;;;;0.03;100.00;101775.94;1760075;81;21143;-54
2020/12/04 07:27:28;;;;;;;0.90;0.90;;;;;;;0.05;100.00;101781.95;1783468;80;21146;-55
2020/12/04 07:29:55;;;;;;;11.40;2.27;;;;;;;0.07;100.00;101782.61;1753124;80;21184;-54
2020/12/04 07:32:24;;;;;;;1.82;1.72;;;;;;;0.07;100.00;101780.75;1756261;81;21143;-54
2020/12/04 07:34:51;;;;;;;1.92;1.77;;;;;;;0.10;100.00;101788.97;1739078;81;21198;-54
2020/12/04 07:37:19;;;;;;;1.07;1.00;;;;;;;0.11;100.00;101790.66;1756470;81;21616;-52
2020/12/04 07:39:46;;;;;;;0.33;0.33;;;;;;;0.10;100.00;101784.94;1761241;81;21166;-52
2020/12/04 07:42:14;;;;;;;2.45;1.65;;;;;;;0.09;100.00;101794.03;1750011;81;21138;-54
2020/12/04 07:44:44;;;;;;;1.32;0.68;;;;;;;0.08;100.00;101793.72;1748403;81;21227;-51
2020/12/04 07:47:15;;;;;;;3.42;1.37;;;;;;;0.08;100.00;101790.52;1732287;81;21195;-54
2020/12/04 07:49:46;;;;;;;1.12;1.12;;;;;;;0.09;100.00;101775.22;1744172;81;21620;-52
2020/12/04 07:52:35;;;;;;;0.33;0.33;;;;;;;0.11;100.00;101770.50;1744304;81;21131;-54
2020/12/04 07:55:06;;;;;;;1.17;1.02;;;;;;;0.13;100.00;101776.55;1730356;81;21148;-52
2020/12/04 07:58:00;;;;;;;4.90;0.98;;;;;;;0.11;100.00;101771.84;1754458;81;21159;-53
2020/12/04 08:00:34;;;;;;;1.47;0.68;;;;;;;0.13;100.00;101765.79;1768811;80;21421;-54
2020/12/04 08:03:05;;;;;;;0.72;0.42;;;;;;;0.13;100.00;101769.31;1743239;81;21150;-54
2020/12/04 08:05:34;;;;;;;4.17;2.95;;;;;;;0.14;100.00;101775.00;1761933;81;21133;-51
2020/12/04 08:08:03;;;;;;;1.20;1.17;;;;;;;0.12;100.00;101768.97;1760347;81;21337;-52
2020/12/04 08:10:31;;;;;;;5.90;1.42;;;;;;;0.13;100.00;101770.66;1757347;81;21149;-52
2020/12/04 08:12:58;;;;;;;0.10;0.10;;;;;;;0.14;100.00;101768.80;1749874;81;21548;-52
2020/12/04 08:15:26;;;;;;;5.17;0.78;;;;;;;0.16;100.00;101760.88;1738206;81;21121;-52
2020/12/04 08:18:02;;;;;;;3.62;0.53;;;;;;;0.16;100.00;101765.43;1753035;81;21130;-52
2020/12/04 08:20:30;;;;;;;5.15;1.75;;;;;;;0.19;100.00;101775.81;1751223;81;21132;-48
2020/12/04 08:22:58;;;;;;;2.05;0.80;;;;;;;0.19;100.00;101778.51;1762322;81;21499;-50
2020/12/04 08:25:28;;;;;;;0.82;0.82;;;;;;;0.19;100.00;101775.81;1762156;81;21624;-52
2020/12/04 08:27:56;;;;;;;2.00;0.23;;;;;;;0.17;100.00;101788.11;1780358;80;21114;-51
2020/12/04 08:30:27;;;;;;;2.12;2.02;;;;;;;0.19;100.00;101782.54;1763712;79;21115;-49
2020/12/04 08:33:00;;;;;;;0.50;0.50;;;;;;;0.21;100.00;101776.48;1763348;80;21126;-50
2020/12/04 08:35:38;;;;;;;0.53;0.53;;;;;;;0.22;100.00;101772.77;1764106;80;21190;-50
2020/12/04 08:38:16;;;;;;;0.15;0.15;;;;;;;0.25;100.00;101771.56;1809583;79;21161;-51
2020/12/04 08:40:53;;;;;;;1.85;1.75;;;;;;;0.27;100.00;101774.92;1771792;79;21107;-48
2020/12/04 08:43:24;;;;;;;0.20;0.20;;;;;;;0.27;100.00;101773.06;1734480;80;21563;-49
2020/12/04 08:45:56;;;;;;;0.50;0.50;;;;;;;0.28;100.00;101765.34;1774894;80;21089;-51
2020/12/04 08:48:25;;;;;;;1.32;0.55;;;;;;;0.29;100.00;101765.66;1770559;80;21144;-51
2020/12/04 08:51:02;;;;;;;0.42;0.42;;;;;;;0.30;100.00;101763.83;1771502;80;21324;-51
2020/12/04 08:53:31;;;;;;;0.62;0.62;;;;;;;0.32;100.00;101764.46;1763626;80;21517;-51
2020/12/04 08:56:00;;;;;;;1.20;1.20;;;;;;;0.31;100.00;101773.05;1762760;80;21196;-49
2020/12/04 08:58:28;;;;;;;1.07;0.98;;;;;;;0.32;100.00;101773.39;1764406;80;21152;-51
2020/12/04 09:00:57;;;;;;;3.70;0.88;;;;;;;0.35;100.00;101778.92;1766326;80;21668;-49
2020/12/04 09:06:05;;;;;;;1.47;1.40;;;;;;;0.45;100.00;101762.55;1822758;76;29060;-51
2020/12/04 09:08:33;;;;;;;0.33;0.33;;;;;;;0.40;100.00;101771.98;1714420;83;21130;-50
2020/12/04 09:11:00;;;;;;;2.25;1.65;;;;;;;0.42;100.00;101768.60;1715952;81;21203;-50
2020/12/04 09:13:28;;;;;;;1.98;1.75;;;;;;;0.43;100.00;101768.92;1750740;81;21123;-49
2020/12/04 09:15:56;;;;;;;1.07;1.07;;;;;;;0.47;100.00;101764.52;1723585;81;21505;-51
2020/12/04 09:18:23;;;;;;;0.05;0.05;;;;;;;0.48;100.00;101760.83;1718823;83;21524;-48
2020/12/04 09:20:50;;;;;;;0.60;0.60;;;;;;;0.50;100.00;101756.11;1720375;83;21162;-51
2020/12/04 09:23:19;;;;;;;0.78;0.78;;;;;;;0.53;100.00;101759.27;1715126;83;21609;-51
2020/12/04 09:25:47;;;;;;;0.17;0.17;;;;;;;0.56;100.00;101756.20;1724053;81;21803;-48
2020/12/04 09:28:17;;;;;;;1.12;1.02;;;;;;;0.55;100.00;101753.20;1719582;83;20989;-51
2020/12/04 09:30:44;;;;;;;2.20;1.57;;;;;;;0.56;100.00;101758.89;1719115;82;21164;-51
2020/12/04 09:33:11;;;;;;;0.98;0.90;;;;;;;0.57;100.00;101760.58;1737562;82;21166;-49
2020/12/04 09:35:39;;;;;;;1.95;0.55;;;;;;;0.57;100.00;101762.41;1751964;80;21146;-51
2020/12/04 09:38:06;;;;;;;1.45;0.95;;;;;;;0.58;100.00;101762.75;1733118;81;21221;-48
2020/12/04 09:40:34;;;;;;;0.55;0.55;;;;;;;0.57;100.00;101763.75;1748216;81;21111;-51
2020/12/04 09:43:01;;;;;;;2.55;0.68;;;;;;;0.54;100.00;101764.95;1718512;83;21165;-50
2020/12/04 09:45:29;;;;;;;0.53;0.53;;;;;;;0.54;100.00;101762.78;1751190;80;21154;-51
2020/12/04 09:47:57;;;;;;;0.30;0.30;;;;;;;0.56;100.00;101763.44;1724651;83;21174;-49
2020/12/04 09:50:25;;;;;;;1.37;1.27;;;;;;;0.56;100.00;101763.44;1719584;82;21198;-51
2020/12/04 09:52:53;;;;;;;3.30;1.57;;;;;;;0.55;100.00;101759.09;1724731;83;21107;-51
2020/12/04 09:55:20;;;;;;;2.37;1.90;;;;;;;0.57;100.00;101765.09;1721662;83;21166;-47
2020/12/04 09:57:48;;;;;;;1.20;0.93;;;;;;;0.59;100.00;101768.45;1748179;81;21418;-50
2020/12/04 10:00:15;;;;;;;1.98;1.32;;;;;;;0.62;100.00;101770.80;1732054;81;21161;-51
2020/12/04 10:02:45;;;;;;;1.20;0.72;;;;;;;0.65;100.00;101771.78;1725487;82;21146;-51
2020/12/04 10:05:12;;;;;;;1.10;1.10;;;;;;;0.64;100.00;101768.73;1750942;80;21225;-47
2020/12/04 10:07:39;;;;;;;1.70;1.35;;;;;;;0.67;100.00;101771.09;1723444;83;21671;-50
2020/12/04 10:10:07;;;;;;;0.80;0.80;;;;;;;0.70;100.00;101775.27;1724475;81;21119;-49
2020/12/04 10:12:35;;;;;;;0.90;0.90;;;;;;;0.69;100.00;101771.72;1749274;80;21941;-51
2020/12/04 10:15:03;;;;;;;1.42;1.32;;;;;;;0.70;100.00;101763.99;1750617;81;21158;-49
2020/12/04 10:17:30;;;;;;;0.75;0.42;;;;;;;0.70;100.00;101762.65;1715833;83;21119;-50
2020/12/04 10:19:58;;;;;;;0.85;0.82;;;;;;;0.70;100.00;101754.58;1720756;83;21135;-48
2020/12/04 10:22:27;;;;;;;2.00;1.62;;;;;;;0.72;100.00;101747.16;1717842;82;21441;-51
2020/12/04 10:24:54;;;;;;;3.30;3.00;;;;;;;0.73;100.00;101754.20;1750466;80;21102;-49
2020/12/04 10:27:22;;;;;;;1.27;1.22;;;;;;;0.74;100.00;101758.59;1740643;81;21170;-50
2020/12/04 10:29:51;;;;;;;2.02;1.25;;;;;;;0.75;100.00;101756.20;1724052;83;21178;-52
2020/12/04 10:32:20;;;;;;;1.00;0.57;;;;;;;0.77;100.00;101766.28;1745685;80;21135;-48
2020/12/04 10:34:47;;;;;;;0.98;0.75;;;;;;;0.76;100.00;101764.59;1723533;83;21127;-51
2020/12/04 10:37:15;;;;;;;0.62;0.62;;;;;;;0.75;100.00;101768.32;1724764;82;21166;-51
2020/12/04 10:39:42;;;;;;;0.65;0.65;;;;;;;0.72;100.00;101757.92;1724093;81;21595;-50
2020/12/04 10:42:10;;;;;;;2.58;2.37;;;;;;;0.68;100.00;101766.54;1750531;80;21130;-51
2020/12/04 10:44:37;;;;;;;1.85;1.22;;;;;;;0.63;100.00;101761.70;1724340;81;21149;-50
2020/12/04 10:47:04;;;;;;;1.02;0.62;;;;;;;0.60;100.00;101762.07;1768858;80;21151;-48
2020/12/04 10:49:32;;;;;;;0.13;0.13;;;;;;;0.58;100.00;101754.69;1756243;80;21245;-47
2020/12/04 10:51:59;;;;;;;0.20;0.20;;;;;;;0.57;100.00;101761.06;1716324;82;21198;-51
2020/12/04 10:54:27;;;;;;;1.57;0.37;;;;;;;0.55;100.00;101766.64;1729450;81;21147;-51
2020/12/04 10:56:57;;;;;;;0.35;0.35;;;;;;;0.54;100.00;101760.09;1729488;82;21557;-51
2020/12/04 10:59:24;;;;;;;0.90;0.88;;;;;;;0.53;100.00;101756.57;1728721;82;21135;-48
2020/12/04 11:02:07;;;;;;;1.37;0.55;;;;;;;0.55;100.00;101755.05;1729526;82;21603;-48
2020/12/04 11:07:13;;;;;;;0.90;0.55;;;;;;;0.54;100.00;101756.88;1723452;82;21011;-49
2020/12/04 11:09:42;;;;;;;0.30;0.30;;;;;;;0.51;100.00;101757.25;1711936;83;21226;-48
2020/12/04 11:12:11;;;;;;;1.62;1.52;;;;;;;0.51;100.00;101752.39;1714114;82;21672;-51
2020/12/04 11:14:43;;;;;;;1.95;0.47;;;;;;;0.52;100.00;101750.02;1703622;83;21297;-51
2020/12/04 11:17:09;;;;;;;0.82;0.82;;;;;;;0.52;100.00;101758.08;1785138;80;21698;-50
2020/12/04 11:19:37;;;;;;;1.67;1.57;;;;;;;0.52;100.00;101748.67;1734993;81;21125;-50
2020/12/04 11:22:05;;;;;;;0.40;0.40;;;;;;;0.52;100.00;101750.02;1781966;80;21150;-51
2020/12/04 11:24:32;;;;;;;0.10;0.10;;;;;;;0.52;100.00;101745.98;1785329;80;21090;-48
2020/12/04 11:27:00;;;;;;;0.47;0.47;;;;;;;0.51;100.00;101747.01;1769475;80;21160;-52
2020/12/04 11:29:28;;;;;;;0.70;0.70;;;;;;;0.47;100.00;101753.76;1786054;80;21449;-51
2020/12/04 11:31:55;;;;;;;1.87;0.30;;;;;;;0.43;100.00;101746.06;1785091;80;21161;-51
2020/12/04 11:34:23;;;;;;;0.60;0.45;;;;;;;0.42;100.00;101745.74;1784236;78;21094;-51
2020/12/04 11:36:50;;;;;;;1.55;0.20;;;;;;;0.41;100.00;101743.22;1783181;80;21118;-49